createdAt,value
2018-12-07T06:21:28.603Z,93.48
2018-12-07T06:22:39.764Z,93.68
2018-12-07T06:23:39.853Z,93.89
2018-12-07T06:24:29.612Z,93.89
2018-12-07T06:25:29.121Z,93.89
2018-12-07T06:26:28.173Z,93.99
2018-12-07T06:27:28.198Z,93.89
2018-12-07T06:28:28.280Z,93.89
2018-12-07T06:29:28.105Z,93.59
2018-12-07T06:30:28.587Z,93.99
2018-12-07T06:31:28.092Z,93.59
2018-12-07T06:32:28.044Z,93.89
2018-12-07T06:33:28.594Z,93.89
2018-12-07T06:34:28.026Z,93.99
2018-12-07T06:35:28.046Z,93.89
2018-12-07T06:36:28.008Z,94.10
2018-12-07T06:37:27.993Z,94.24
2018-12-07T06:38:27.978Z,93.79
2018-12-07T06:39:27.970Z,93.89
2018-12-07T06:40:27.979Z,93.79
2018-12-07T06:41:28.970Z,93.79
2018-12-07T06:42:27.928Z,93.89
2018-12-07T06:43:27.926Z,93.79
2018-12-07T06:44:27.907Z,93.99
2018-12-07T06:45:27.896Z,93.79
2018-12-07T06:46:29.630Z,93.89
2018-12-07T06:47:29.089Z,93.79
2018-12-07T06:48:27.867Z,93.89
2018-12-07T06:49:27.860Z,93.68
2018-12-07T06:50:27.843Z,93.89
2018-12-07T06:51:27.828Z,93.89
2018-12-07T06:52:27.831Z,93.89
2018-12-07T06:53:27.837Z,93.99
2018-12-07T06:54:27.799Z,93.07
2018-12-07T06:55:27.783Z,94.20
2018-12-07T06:56:27.782Z,93.59
2018-12-07T06:57:27.872Z,93.59
2018-12-07T06:58:27.753Z,93.74
2018-12-07T06:59:27.780Z,93.74
2018-12-07T07:00:27.728Z,93.54
2018-12-07T07:01:27.722Z,94.15
2018-12-07T07:02:27.729Z,93.74
2018-12-07T07:03:27.704Z,93.85
2018-12-07T07:04:28.735Z,93.64
2018-12-07T07:05:29.585Z,94.05
2018-12-07T07:06:27.687Z,93.54
2018-12-07T07:07:27.647Z,93.54
2018-12-07T07:08:27.652Z,93.44
2018-12-07T07:09:27.621Z,94.15
2018-12-07T07:10:27.615Z,93.85
2018-12-07T07:11:27.602Z,93.85
2018-12-07T07:12:29.174Z,93.85
2018-12-07T07:13:27.619Z,93.64
2018-12-07T07:14:27.575Z,93.95
2018-12-07T07:15:27.561Z,93.74
2018-12-07T07:16:27.554Z,93.95
2018-12-07T07:17:27.539Z,94.40
2018-12-07T07:18:27.555Z,94.71
2018-12-07T07:19:27.533Z,94.61
2018-12-07T07:20:27.504Z,94.30
2018-12-07T07:21:28.088Z,94.30
2018-12-07T07:22:27.484Z,94.10
2018-12-07T07:23:28.090Z,94.71
2018-12-07T07:24:27.519Z,94.92
2018-12-07T07:25:27.450Z,94.81
2018-12-07T07:26:27.436Z,94.81
2018-12-07T07:27:27.423Z,94.61
2018-12-07T07:28:27.416Z,94.61
2018-12-07T07:29:27.409Z,94.40
2018-12-07T07:30:28.183Z,94.61
2018-12-07T07:31:28.373Z,94.61
2018-12-07T07:32:27.379Z,94.40
2018-12-07T07:33:27.376Z,94.61
2018-12-07T07:34:27.341Z,94.81
2018-12-07T07:35:27.327Z,94.51
2018-12-07T07:36:27.635Z,94.30
2018-12-07T07:37:27.311Z,94.10
2018-12-07T07:38:27.302Z,94.26
2018-12-07T07:39:27.282Z,94.46
2018-12-07T07:40:27.285Z,94.26
2018-12-07T07:41:30.129Z,94.46
2018-12-07T07:42:27.252Z,94.10
2018-12-07T07:43:27.249Z,94.05
2018-12-07T07:44:27.233Z,94.05
2018-12-07T07:45:27.244Z,94.26
2018-12-07T07:46:27.252Z,94.77
2018-12-07T07:47:27.221Z,94.26
2018-12-07T07:48:27.183Z,93.95
2018-12-07T07:49:27.169Z,94.51
2018-12-07T07:50:27.161Z,94.71
2018-12-07T07:51:27.157Z,94.46
2018-12-07T07:52:27.169Z,94.71
2018-12-07T07:53:27.143Z,94.71
2018-12-07T07:54:28.046Z,94.81
2018-12-07T07:55:27.119Z,94.81
2018-12-07T07:56:27.094Z,94.87
2018-12-07T07:57:27.103Z,94.77
2018-12-07T07:58:27.080Z,94.26
2018-12-07T07:59:27.060Z,94.77
2018-12-07T08:00:27.086Z,94.87
2018-12-07T08:01:27.037Z,94.87
2018-12-07T08:02:27.025Z,94.40
2018-12-07T08:03:27.589Z,94.56
2018-12-07T08:04:27.612Z,94.67
2018-12-07T08:05:27.033Z,94.26
2018-12-07T08:06:26.979Z,94.67
2018-12-07T08:07:26.970Z,95.07
2018-12-07T08:08:26.965Z,94.46
2018-12-07T08:09:26.951Z,94.67
2018-12-07T08:10:26.942Z,94.67
2018-12-07T08:11:27.616Z,94.67
2018-12-07T08:12:26.921Z,94.87
2018-12-07T08:13:26.938Z,94.56
2018-12-07T08:14:26.895Z,94.46
2018-12-07T08:15:26.889Z,94.67
2018-12-07T08:16:26.871Z,94.87
2018-12-07T08:17:26.893Z,94.77
2018-12-07T08:18:26.971Z,94.87
2018-12-07T08:19:27.117Z,94.87
2018-12-07T08:20:26.835Z,94.98
2018-12-07T08:21:26.806Z,95.28
2018-12-07T08:22:26.807Z,94.67
2018-12-07T08:23:26.799Z,94.87
2018-12-07T08:24:27.596Z,94.15
2018-12-07T08:25:26.806Z,94.26
2018-12-07T08:26:26.760Z,94.56
2018-12-07T08:27:27.808Z,94.36
2018-12-07T08:28:26.743Z,94.67
2018-12-07T08:29:26.756Z,94.15
2018-12-07T08:30:27.590Z,94.15
2018-12-07T08:31:26.715Z,94.26
2018-12-07T08:32:26.768Z,94.46
2018-12-07T08:33:26.680Z,94.15
2018-12-07T08:34:26.675Z,94.98
2018-12-07T08:35:26.734Z,94.05
2018-12-07T08:36:27.597Z,94.05
2018-12-07T08:37:37.598Z,93.95
2018-12-07T08:41:24.869Z,94.26
2018-12-07T08:42:24.720Z,94.56
2018-12-07T08:43:24.682Z,94.46
2018-12-07T08:44:39.183Z,94.56
2018-12-07T08:45:35.614Z,94.46
2018-12-07T08:46:24.676Z,94.52
2018-12-07T08:47:24.619Z,93.80
2018-12-07T08:48:24.662Z,93.90
2018-12-07T08:49:24.594Z,94.11
2018-12-07T08:50:24.581Z,94.11
2018-12-07T08:51:35.402Z,93.90
2018-12-07T08:52:24.619Z,94.01
2018-12-07T08:53:24.560Z,93.90
2018-12-07T08:54:24.539Z,93.90
2018-12-07T08:55:24.570Z,93.70
2018-12-07T08:56:36.194Z,93.70
2018-12-07T08:57:25.208Z,93.90
2018-12-07T08:58:35.248Z,93.49
2018-12-07T08:59:35.371Z,94.21
2018-12-07T09:00:36.835Z,93.49
2018-12-07T09:01:24.510Z,93.04
2018-12-07T09:02:24.459Z,93.60
2018-12-07T09:03:24.484Z,93.70
2018-12-07T09:04:41.284Z,93.39
2018-12-07T09:05:24.422Z,92.83
2018-12-07T09:06:24.405Z,93.08
2018-12-07T09:07:36.044Z,92.94
2018-12-07T09:08:34.867Z,92.98
2018-12-07T09:09:35.719Z,93.04
2018-12-07T09:11:36.545Z,92.36
2018-12-07T09:16:37.409Z,92.53
2018-12-07T09:18:51.201Z,92.83
2018-12-07T09:19:51.219Z,92.63
2018-12-07T09:20:54.169Z,92.74
2018-12-07T09:22:02.769Z,91.71
2018-12-07T09:22:51.142Z,92.22
2018-12-07T09:23:52.137Z,91.71
2018-12-07T09:25:00.711Z,91.97
2018-12-07T09:25:59.776Z,91.87
2018-12-07T09:27:01.867Z,91.56
2018-12-07T09:27:51.121Z,91.97
2018-12-07T09:29:02.235Z,91.87
2018-12-07T09:30:01.572Z,91.56
2018-12-07T09:30:59.760Z,91.36
2018-12-07T09:31:59.757Z,90.95
2018-12-07T09:34:10.453Z,90.95
2018-12-07T09:37:24.878Z,90.84
2018-12-07T09:38:34.853Z,90.95
2018-12-07T09:39:36.502Z,90.95
2018-12-07T09:40:24.813Z,90.44
2018-12-07T09:41:34.387Z,90.23
2018-12-07T09:42:35.536Z,90.23
2018-12-07T09:43:35.480Z,90.75
2018-12-07T09:45:39.443Z,90.64
2018-12-07T09:49:04.479Z,90.54
2018-12-07T09:50:02.935Z,90.75
2018-12-07T09:51:03.903Z,90.03
2018-12-07T09:52:13.363Z,90.64
2018-12-07T09:53:12.650Z,90.03
2018-12-07T09:55:14.270Z,90.75
2018-12-07T09:57:25.481Z,90.75
2018-12-07T09:58:25.279Z,90.03
2018-12-07T09:59:25.260Z,90.75
2018-12-07T10:01:37.384Z,90.84
2018-12-07T10:03:50.908Z,89.92
2018-12-07T10:05:00.546Z,90.23
2018-12-07T10:05:50.681Z,90.30
2018-12-07T10:06:51.649Z,89.92
2018-12-07T10:08:02.639Z,89.92
2018-12-07T10:09:03.612Z,89.92
2018-12-07T10:09:50.633Z,89.92
2018-12-07T10:11:00.585Z,89.98
2018-12-07T10:12:02.967Z,90.23
2018-12-07T10:12:50.601Z,90.03
2018-12-07T10:14:01.127Z,90.03
2018-12-07T10:14:50.617Z,89.83
2018-12-07T10:16:01.246Z,90.13
2018-12-07T10:16:50.545Z,89.51
2018-12-07T10:18:24.253Z,89.42
2018-12-07T10:18:50.502Z,89.98
2018-12-07T10:19:50.487Z,90.03
2018-12-07T10:20:50.591Z,90.13
2018-12-07T10:22:01.399Z,89.89
2018-12-07T10:22:50.442Z,89.92
2018-12-07T10:23:50.505Z,90.13
2018-12-07T10:24:50.544Z,90.34
2018-12-07T10:25:50.454Z,90.50
2018-12-07T10:26:50.371Z,90.13
2018-12-07T10:27:50.370Z,90.03
2018-12-07T10:28:51.181Z,89.89
2018-12-07T10:29:51.077Z,89.98
2018-12-07T10:30:50.355Z,89.89
2018-12-07T10:31:50.337Z,89.89
2018-12-07T10:32:50.304Z,89.89
2018-12-07T10:33:51.093Z,89.98
2018-12-07T10:34:50.316Z,90.70
2018-12-07T10:35:50.275Z,91.01
2018-12-07T10:36:50.278Z,89.89
2018-12-07T10:37:50.288Z,89.98
2018-12-07T10:38:50.239Z,90.60
2018-12-07T10:40:01.879Z,90.09
2018-12-07T10:40:59.726Z,89.89
2018-12-07T10:43:11.288Z,90.60
2018-12-07T10:45:59.862Z,90.09
2018-12-07T10:48:13.428Z,89.89
2018-12-07T10:49:12.939Z,89.27
2018-12-07T10:50:13.942Z,89.89
2018-12-07T10:51:12.921Z,89.89
2018-12-07T10:52:13.631Z,89.47
2018-12-07T10:53:12.969Z,89.47
2018-12-07T10:54:12.945Z,89.37
2018-12-07T10:55:12.854Z,89.47
2018-12-07T10:56:25.348Z,89.98
2018-12-07T10:58:25.332Z,89.58
2018-12-07T10:59:32.836Z,89.47
2018-12-07T11:01:36.299Z,90.09
2018-12-07T11:02:38.135Z,90.19
2018-12-07T11:03:37.002Z,89.89
2018-12-07T11:04:36.085Z,90.09
2018-12-07T11:05:36.077Z,89.89
2018-12-07T11:06:36.056Z,90.09
2018-12-07T11:07:36.074Z,89.98
2018-12-07T11:08:46.560Z,89.92
2018-12-07T11:09:44.754Z,88.86
2018-12-07T11:10:36.033Z,89.27
2018-12-07T11:11:36.052Z,88.96
2018-12-07T11:12:36.059Z,88.86
2018-12-07T11:13:36.022Z,88.76
2018-12-07T11:14:47.688Z,90.13
2018-12-07T11:15:46.749Z,89.92
2018-12-07T11:16:36.020Z,88.96
2018-12-07T11:17:35.988Z,88.86
2018-12-07T11:18:38.862Z,88.86
2018-12-07T11:19:37.661Z,90.09
2018-12-07T11:20:35.965Z,89.17
2018-12-07T11:21:35.871Z,89.27
2018-12-07T11:22:35.863Z,89.00
2018-12-07T11:23:35.881Z,90.09
2018-12-07T11:24:35.834Z,89.47
2018-12-07T11:25:35.826Z,89.37
2018-12-07T11:26:38.597Z,89.37
2018-12-07T11:27:35.801Z,89.58
2018-12-07T11:28:36.799Z,89.17
2018-12-07T11:29:35.781Z,89.06
2018-12-07T11:30:35.794Z,89.37
2018-12-07T11:31:35.773Z,88.96
2018-12-07T11:32:35.752Z,88.86
2018-12-07T11:33:35.741Z,88.96
2018-12-07T11:34:35.729Z,88.96
2018-12-07T11:35:35.778Z,89.27
2018-12-07T11:36:35.720Z,89.47
2018-12-07T11:37:35.697Z,89.17
2018-12-07T11:38:35.704Z,88.96
2018-12-07T11:39:36.675Z,90.19
2018-12-07T11:40:35.705Z,89.89
2018-12-07T11:41:35.657Z,89.78
2018-12-07T11:42:36.602Z,90.39
2018-12-07T11:43:35.633Z,90.23
2018-12-07T11:44:36.640Z,90.70
2018-12-07T11:45:35.604Z,90.91
2018-12-07T11:46:35.603Z,89.89
2018-12-07T11:47:35.634Z,89.89
2018-12-07T11:48:35.559Z,89.37
2018-12-07T11:49:35.550Z,89.51
2018-12-07T11:50:35.541Z,90.09
2018-12-07T11:51:35.558Z,89.89
2018-12-07T11:52:35.516Z,89.72
2018-12-07T11:53:35.528Z,90.19
2018-12-07T11:54:35.492Z,89.31
2018-12-07T11:55:35.511Z,88.80
2018-12-07T11:56:35.569Z,89.00
2018-12-07T11:57:35.480Z,89.42
2018-12-07T11:58:35.441Z,89.21
2018-12-07T11:59:35.474Z,89.00
2018-12-07T12:00:48.179Z,89.47
2018-12-07T12:01:35.496Z,89.00
2018-12-07T12:03:52.953Z,89.31
2018-12-07T12:05:12.531Z,89.42
2018-12-07T12:05:53.624Z,88.90
2018-12-07T12:06:52.639Z,89.31
2018-12-07T12:07:52.663Z,89.21
2018-12-07T12:08:53.424Z,89.42
2018-12-07T12:10:02.222Z,88.90
2018-12-07T12:11:03.011Z,89.21
2018-12-07T12:12:02.964Z,89.42
2018-12-07T12:12:52.519Z,89.42
2018-12-07T12:14:07.130Z,88.90
2018-12-07T12:15:03.020Z,89.11
2018-12-07T12:16:03.826Z,89.42
2018-12-07T12:16:54.105Z,89.42
2018-12-07T12:17:52.435Z,89.31
2018-12-07T12:18:52.498Z,89.00
2018-12-07T12:19:52.447Z,89.11
2018-12-07T12:21:08.856Z,89.21
2018-12-07T12:21:52.642Z,88.59
2018-12-07T12:24:09.767Z,88.18
2018-12-07T12:25:10.310Z,88.29
2018-12-07T12:26:09.580Z,88.49
2018-12-07T12:27:09.533Z,88.49
2018-12-07T12:28:09.539Z,87.98
2018-12-07T12:29:09.573Z,88.18
2018-12-07T12:30:09.536Z,88.39
2018-12-07T12:33:37.090Z,88.29
2018-12-07T12:34:36.218Z,87.98
2018-12-07T12:35:37.212Z,88.18
2018-12-07T12:36:36.745Z,88.18
2018-12-07T12:37:45.711Z,89.31
2018-12-07T12:38:36.177Z,89.00
2018-12-07T12:39:36.153Z,89.42
2018-12-07T12:40:36.084Z,89.21
2018-12-07T12:41:37.081Z,89.11
2018-12-07T12:42:36.565Z,89.31
2018-12-07T12:43:36.028Z,88.43
2018-12-07T12:44:36.008Z,88.90
2018-12-07T12:45:36.002Z,88.43
2018-12-07T12:46:36.061Z,89.25
2018-12-07T12:47:36.040Z,89.04
2018-12-07T12:48:37.076Z,89.31
2018-12-07T12:49:36.535Z,88.74
2018-12-07T12:50:36.939Z,89.45
2018-12-07T12:51:35.949Z,88.84
2018-12-07T12:52:35.922Z,90.07
2018-12-07T12:53:35.931Z,90.17
2018-12-07T12:54:48.311Z,89.15
2018-12-07T12:55:49.950Z,90.17
2018-12-07T12:56:35.897Z,90.99
2018-12-07T12:57:50.802Z,89.97
2018-12-07T12:58:36.017Z,89.97
2018-12-07T12:59:35.882Z,89.90
2018-12-07T13:00:49.554Z,90.17
2018-12-07T13:01:35.872Z,90.48
2018-12-07T13:02:45.702Z,90.11
2018-12-07T13:03:46.683Z,90.79
2018-12-07T13:04:46.892Z,89.81
2018-12-07T13:05:46.805Z,90.11
2018-12-07T13:06:35.872Z,90.17
2018-12-07T13:07:35.818Z,90.32
2018-12-07T13:08:36.896Z,90.17
2018-12-07T13:09:50.651Z,90.07
2018-12-07T13:10:35.905Z,90.79
2018-12-07T13:11:47.417Z,90.52
2018-12-07T13:12:47.714Z,90.32
2018-12-07T13:13:35.703Z,90.93
2018-12-07T13:14:45.980Z,90.62
2018-12-07T13:15:46.446Z,90.83
2018-12-07T13:16:45.662Z,91.03
2018-12-07T13:17:45.536Z,90.73
2018-12-07T13:18:37.618Z,90.93
2018-12-07T13:19:45.769Z,90.11
2018-12-07T13:21:55.885Z,90.01
2018-12-07T13:24:24.806Z,90.22
2018-12-07T13:25:33.584Z,90.01
2018-12-07T13:26:38.640Z,89.39
2018-12-07T13:28:35.033Z,89.39
2018-12-07T13:29:34.934Z,89.29
2018-12-07T13:30:34.810Z,89.39
2018-12-07T13:31:34.827Z,89.09
2018-12-07T13:32:34.803Z,88.47
2018-12-07T13:33:34.770Z,88.37
2018-12-07T13:34:34.800Z,88.68
2018-12-07T13:35:34.769Z,88.68
2018-12-07T13:36:34.794Z,88.57
2018-12-07T13:37:34.723Z,88.27
2018-12-07T13:38:34.777Z,88.47
2018-12-07T13:39:34.769Z,88.27
2018-12-07T13:40:34.762Z,89.39
2018-12-07T13:41:34.773Z,88.17
2018-12-07T13:42:34.883Z,89.09
2018-12-07T13:43:34.745Z,89.50
2018-12-07T13:44:34.767Z,88.57
2018-12-07T13:45:34.672Z,88.17
2018-12-07T13:46:34.804Z,89.39
2018-12-07T13:47:34.743Z,89.33
2018-12-07T13:48:34.712Z,89.29
2018-12-07T13:49:34.806Z,89.64
2018-12-07T13:50:34.583Z,89.33
2018-12-07T13:51:35.663Z,89.13
2018-12-07T13:52:34.606Z,89.39
2018-12-07T13:53:34.670Z,89.13
2018-12-07T13:54:34.542Z,89.54
2018-12-07T13:55:34.537Z,89.54
2018-12-07T13:56:34.620Z,89.33
2018-12-07T13:57:34.487Z,89.43
2018-12-07T13:58:34.579Z,88.51
2018-12-07T13:59:35.939Z,89.43
2018-12-07T14:00:34.545Z,89.23
2018-12-07T14:01:34.596Z,89.54
2018-12-07T14:02:35.892Z,88.62
2018-12-07T14:03:34.415Z,88.62
2018-12-07T14:04:34.531Z,88.41
2018-12-07T14:05:34.470Z,88.51
2018-12-07T14:06:34.457Z,88.51
2018-12-07T14:07:34.556Z,88.82
2018-12-07T14:08:34.404Z,89.33
2018-12-07T14:09:34.584Z,88.62
2018-12-07T14:10:34.398Z,88.72
2018-12-07T14:11:34.344Z,88.51
2018-12-07T14:12:34.514Z,88.41
2018-12-07T14:13:34.390Z,88.51
2018-12-07T14:14:34.309Z,88.31
2018-12-07T14:15:34.355Z,88.51
2018-12-07T14:16:34.460Z,87.59
2018-12-07T14:17:34.258Z,88.00
2018-12-07T14:18:34.433Z,87.59
2018-12-07T14:19:34.255Z,88.10
2018-12-07T14:20:34.371Z,87.79
2018-12-07T14:21:34.241Z,88.21
2018-12-07T14:22:34.443Z,88.31
2018-12-07T14:23:35.844Z,88.10
2018-12-07T14:24:34.205Z,87.49
2018-12-07T14:25:34.186Z,88.00
2018-12-07T14:26:34.255Z,87.79
2018-12-07T14:27:34.164Z,87.70
2018-12-07T14:28:34.356Z,87.90
2018-12-07T14:29:34.258Z,87.70
2018-12-07T14:30:34.151Z,88.00
2018-12-07T14:31:34.167Z,88.21
2018-12-07T14:32:34.224Z,88.00
2018-12-07T14:33:34.187Z,88.00
2018-12-07T14:34:34.100Z,87.70
2018-12-07T14:35:34.301Z,87.90
2018-12-07T14:36:34.063Z,87.79
2018-12-07T14:37:34.071Z,88.10
2018-12-07T14:38:34.062Z,87.59
2018-12-07T14:39:34.204Z,87.59
2018-12-07T14:40:34.643Z,88.00
2018-12-07T14:41:45.849Z,87.84
2018-12-07T14:42:34.178Z,87.73
2018-12-07T14:43:45.879Z,87.73
2018-12-07T14:44:34.109Z,88.66
2018-12-07T14:45:44.475Z,88.45
2018-12-07T14:46:34.191Z,88.45
2018-12-07T14:47:33.931Z,88.56
2018-12-07T14:48:34.185Z,87.84
2018-12-07T14:49:34.686Z,87.73
2018-12-07T14:50:35.163Z,87.94
2018-12-07T14:51:34.695Z,88.14
2018-12-07T14:52:33.885Z,88.00
2018-12-07T14:53:34.068Z,88.21
2018-12-07T14:54:33.971Z,88.10
2018-12-07T14:55:33.958Z,88.00
2018-12-07T14:56:34.738Z,87.59
2018-12-07T14:57:34.036Z,88.62
2018-12-07T14:58:33.802Z,88.31
2018-12-07T14:59:33.845Z,87.59
2018-12-07T15:00:33.855Z,88.00
2018-12-07T15:01:33.979Z,87.59
2018-12-07T15:02:33.747Z,87.90
2018-12-07T15:03:33.738Z,87.90
2018-12-07T15:04:33.750Z,87.38
2018-12-07T15:05:34.029Z,87.49
2018-12-07T15:06:45.363Z,87.59
2018-12-07T15:07:33.818Z,87.12
2018-12-07T15:08:33.695Z,87.28
2018-12-07T15:09:35.818Z,87.28
2018-12-07T15:10:33.830Z,86.87
2018-12-07T15:11:33.879Z,86.25
2018-12-07T15:12:33.928Z,86.36
2018-12-07T15:13:33.698Z,86.05
2018-12-07T15:14:33.723Z,86.46
2018-12-07T15:15:33.724Z,86.05
2018-12-07T15:16:33.824Z,85.85
2018-12-07T15:17:44.149Z,86.15
2018-12-07T15:18:45.539Z,85.95
2018-12-07T15:19:43.859Z,86.09
2018-12-07T15:20:33.638Z,85.95
2018-12-07T15:21:33.642Z,86.71
2018-12-07T15:22:33.597Z,86.19
2018-12-07T15:23:33.628Z,85.78
2018-12-07T15:24:33.601Z,86.71
2018-12-07T15:25:33.509Z,86.19
2018-12-07T15:26:33.535Z,85.89
2018-12-07T15:27:34.563Z,85.17
2018-12-07T15:28:33.622Z,85.78
2018-12-07T15:29:34.311Z,85.41
2018-12-07T15:30:33.436Z,85.47
2018-12-07T15:31:42.073Z,85.06
2018-12-07T15:32:33.664Z,84.76
2018-12-07T15:33:33.510Z,85.11
2018-12-07T15:34:33.455Z,85.38
2018-12-07T15:35:33.531Z,85.06
2018-12-07T15:36:33.585Z,85.58
2018-12-07T15:37:33.467Z,84.86
2018-12-07T15:38:33.475Z,85.17
2018-12-07T15:39:33.483Z,85.27
2018-12-07T15:40:33.512Z,85.78
2018-12-07T15:41:33.409Z,85.82
2018-12-07T15:42:33.378Z,86.24
2018-12-07T15:43:33.375Z,86.13
2018-12-07T15:44:33.424Z,85.31
2018-12-07T15:45:33.357Z,86.33
2018-12-07T15:46:33.295Z,85.82
2018-12-07T15:47:33.333Z,85.93
2018-12-07T15:48:33.262Z,85.93
2018-12-07T15:49:33.683Z,85.62
2018-12-07T15:50:33.263Z,85.11
2018-12-07T15:51:33.229Z,85.93
2018-12-07T15:52:33.261Z,86.03
2018-12-07T15:53:33.254Z,86.03
2018-12-07T15:54:33.242Z,85.11
2018-12-07T15:55:33.441Z,85.21
2018-12-07T15:56:33.446Z,85.72
2018-12-07T15:57:45.042Z,85.00
2018-12-07T15:58:43.097Z,85.00
2018-12-07T15:59:34.707Z,85.93
2018-12-07T16:00:33.269Z,85.72
2018-12-07T16:01:44.229Z,85.62
2018-12-07T16:02:33.315Z,86.13
2018-12-07T16:03:43.797Z,85.62
2018-12-07T16:04:33.271Z,86.03
2018-12-07T16:05:33.139Z,85.41
2018-12-07T16:06:33.434Z,86.03
2018-12-07T16:07:34.244Z,85.52
2018-12-07T16:08:33.307Z,85.21
2018-12-07T16:09:33.190Z,85.41
2018-12-07T16:10:33.182Z,86.03
2018-12-07T16:11:33.067Z,85.62
2018-12-07T16:12:33.027Z,85.52
2018-12-07T16:13:32.997Z,85.21
2018-12-07T16:14:33.031Z,85.72
2018-12-07T16:15:32.962Z,85.21
2018-12-07T16:16:33.080Z,85.41
2018-12-07T16:17:34.032Z,85.31
2018-12-07T16:19:01.419Z,85.41
2018-12-07T16:19:33.053Z,85.31
2018-12-07T16:20:32.866Z,85.62
2018-12-07T16:21:32.949Z,85.52
2018-12-07T16:22:33.087Z,85.72
2018-12-07T16:23:32.830Z,85.31
2018-12-07T16:24:32.971Z,85.00
2018-12-07T16:25:42.773Z,85.00
2018-12-07T16:26:32.959Z,85.41
2018-12-07T16:27:32.907Z,84.80
2018-12-07T16:28:32.852Z,84.39
2018-12-07T16:29:32.858Z,84.80
2018-12-07T16:30:32.980Z,84.59
2018-12-07T16:31:42.777Z,84.80
2018-12-07T16:32:43.723Z,84.22
2018-12-07T16:33:47.939Z,83.98
2018-12-07T16:34:32.821Z,84.74
2018-12-07T16:35:42.828Z,83.50
2018-12-07T16:36:32.841Z,83.46
2018-12-07T16:37:32.766Z,84.39
2018-12-07T16:38:32.905Z,82.95
2018-12-07T16:39:32.823Z,83.05
2018-12-07T16:40:32.680Z,83.05
2018-12-07T16:41:41.301Z,82.03
2018-12-07T16:42:47.807Z,81.41
2018-12-07T16:43:43.937Z,82.33
2018-12-07T16:44:42.295Z,82.03
2018-12-07T16:45:41.305Z,81.00
2018-12-07T16:46:32.875Z,81.41
2018-12-07T16:47:32.591Z,81.71
2018-12-07T16:48:53.651Z,80.90
2018-12-07T16:49:32.759Z,80.79
2018-12-07T16:50:32.556Z,81.10
2018-12-07T16:51:42.224Z,81.62
2018-12-07T16:52:32.645Z,81.71
2018-12-07T16:53:44.056Z,81.30
2018-12-07T16:54:32.574Z,81.62
2018-12-07T16:55:32.624Z,81.41
2018-12-07T16:56:32.502Z,81.30
2018-12-07T16:57:32.664Z,81.62
2018-12-07T16:58:32.716Z,81.41
2018-12-07T16:59:32.579Z,81.92
2018-12-07T17:00:32.404Z,81.30
2018-12-07T17:01:32.616Z,82.13
2018-12-07T17:02:32.585Z,83.36
2018-12-07T17:03:32.380Z,84.39
2018-12-07T17:04:32.417Z,84.28
2018-12-07T17:05:32.378Z,85.52
2018-12-07T17:06:32.407Z,85.46
2018-12-07T17:07:32.462Z,86.38
2018-12-07T17:08:32.458Z,86.17
2018-12-07T17:09:32.321Z,87.51
2018-12-07T17:10:32.498Z,87.82
2018-12-07T17:11:32.308Z,88.23
2018-12-07T17:12:32.591Z,88.64
2018-12-07T17:13:32.385Z,88.89
2018-12-07T17:14:32.376Z,89.19
2018-12-07T17:15:32.378Z,89.81
2018-12-07T17:16:32.448Z,89.19
2018-12-07T17:17:32.331Z,90.22
2018-12-07T17:18:32.336Z,90.26
2018-12-07T17:19:32.266Z,90.83
2018-12-07T17:20:32.176Z,90.88
2018-12-07T17:21:32.269Z,91.08
2018-12-07T17:22:32.239Z,91.39
2018-12-07T17:23:32.241Z,91.80
2018-12-07T17:24:32.199Z,91.80
2018-12-07T17:25:32.831Z,92.21
2018-12-07T17:26:32.418Z,92.21
2018-12-07T17:27:32.281Z,92.32
2018-12-07T17:28:32.108Z,92.11
2018-12-07T17:29:32.181Z,93.24
2018-12-07T17:30:44.804Z,92.83
2018-12-07T17:31:33.017Z,92.73
2018-12-07T17:32:32.195Z,92.67
2018-12-07T17:33:32.194Z,93.24
2018-12-07T17:34:33.155Z,93.14
2018-12-07T17:35:32.302Z,93.35
2018-12-07T17:36:32.116Z,93.70
2018-12-07T17:37:32.433Z,93.96
2018-12-07T17:38:33.065Z,93.86
2018-12-07T17:39:31.977Z,94.42
2018-12-07T17:40:31.978Z,94.17
2018-12-07T17:41:31.942Z,94.31
2018-12-07T17:42:32.112Z,93.96
2018-12-07T17:43:32.031Z,93.96
2018-12-07T17:44:32.935Z,94.07
2018-12-07T17:45:33.038Z,94.11
2018-12-07T17:46:32.151Z,94.31
2018-12-07T17:47:32.132Z,94.42
2018-12-07T17:48:33.161Z,94.31
2018-12-07T17:49:31.924Z,93.96
2018-12-07T17:50:31.927Z,94.37
2018-12-07T17:51:32.058Z,94.07
2018-12-07T17:52:31.848Z,93.70
2018-12-07T17:53:32.064Z,93.14
2018-12-07T17:54:31.822Z,93.08
2018-12-07T17:55:32.042Z,92.73
2018-12-07T17:56:31.853Z,92.52
2018-12-07T17:57:31.751Z,92.73
2018-12-07T17:58:31.951Z,92.32
2018-12-07T17:59:31.739Z,92.01
2018-12-07T18:00:31.735Z,91.80
2018-12-07T18:01:31.734Z,92.52
2018-12-07T18:02:31.703Z,92.93
2018-12-07T18:03:31.692Z,92.57
2018-12-07T18:05:40.762Z,92.57
2018-12-07T18:06:41.731Z,92.36
2018-12-07T18:07:40.778Z,92.36
2018-12-07T18:08:40.595Z,92.97
2018-12-07T18:09:40.704Z,92.36
2018-12-07T18:10:40.713Z,92.77
2018-12-07T18:11:41.555Z,92.87
2018-12-07T18:12:40.579Z,92.57
2018-12-07T18:13:49.342Z,92.77
2018-12-07T18:14:40.513Z,93.02
2018-12-07T18:15:40.653Z,93.23
2018-12-07T18:16:41.498Z,92.87
2018-12-07T18:17:40.509Z,92.92
2018-12-07T18:18:40.400Z,92.36
2018-12-07T18:19:40.462Z,92.92
2018-12-07T18:20:40.352Z,92.71
2018-12-07T18:21:40.417Z,93.43
2018-12-07T18:22:40.330Z,92.92
2018-12-07T18:23:40.347Z,92.92
2018-12-07T18:24:40.878Z,92.82
2018-12-07T18:25:40.566Z,93.33
2018-12-07T18:26:40.338Z,92.61
2018-12-07T18:27:40.552Z,92.61
2018-12-07T18:28:40.408Z,92.40
2018-12-07T18:29:40.503Z,91.53
2018-12-07T18:30:41.233Z,91.06
2018-12-07T18:31:40.262Z,90.34
2018-12-07T18:32:40.456Z,90.45
2018-12-07T18:33:40.273Z,90.66
2018-12-07T18:34:40.421Z,89.83
2018-12-07T18:35:41.306Z,89.62
2018-12-07T18:36:40.399Z,88.29
2018-12-07T18:37:40.168Z,87.98
2018-12-07T18:38:40.526Z,87.67
2018-12-07T18:39:40.244Z,87.98
2018-12-07T18:40:40.924Z,87.98
2018-12-07T18:41:40.230Z,87.57
2018-12-07T18:42:40.384Z,87.87
2018-12-07T18:43:40.201Z,87.57
2018-12-07T18:44:40.129Z,87.67
2018-12-07T18:45:40.222Z,87.36
2018-12-07T18:46:40.232Z,87.77
2018-12-07T18:47:40.309Z,88.43
2018-12-07T18:48:40.052Z,88.53
2018-12-07T18:49:40.027Z,88.74
2018-12-07T18:50:40.275Z,88.53
2018-12-07T18:51:40.027Z,88.53
2018-12-07T18:52:40.183Z,88.90
2018-12-07T18:53:40.041Z,88.74
2018-12-07T18:54:40.025Z,88.95
2018-12-07T18:55:40.096Z,88.74
2018-12-07T18:56:40.100Z,88.74
2018-12-07T18:57:40.200Z,88.43
2018-12-07T18:58:39.954Z,88.74
2018-12-07T18:59:40.080Z,87.46
2018-12-07T19:00:39.922Z,87.87
2018-12-07T19:01:40.006Z,87.77
2018-12-07T19:02:39.931Z,88.53
2018-12-07T19:03:39.918Z,88.02
2018-12-07T19:04:40.182Z,88.49
2018-12-07T19:05:40.150Z,88.12
2018-12-07T19:06:39.924Z,88.43
2018-12-07T19:07:39.831Z,87.92
2018-12-07T19:08:39.864Z,87.87
2018-12-07T19:09:39.972Z,87.98
2018-12-07T19:10:39.906Z,87.40
2018-12-07T19:11:40.041Z,88.02
2018-12-07T19:12:40.373Z,88.23
2018-12-07T19:13:39.964Z,87.57
2018-12-07T19:14:39.793Z,87.81
2018-12-07T19:15:39.734Z,87.98
2018-12-07T19:16:39.933Z,87.92
2018-12-07T19:17:39.792Z,87.57
2018-12-07T19:18:39.802Z,87.77
2018-12-07T19:19:39.853Z,87.87
2018-12-07T19:20:39.861Z,87.57
2018-12-07T19:21:40.526Z,87.67
2018-12-07T19:22:39.934Z,87.05
2018-12-07T19:23:39.738Z,87.77
2018-12-07T19:24:39.704Z,87.22
2018-12-07T19:25:39.943Z,87.67
2018-12-07T19:26:39.814Z,87.77
2018-12-07T19:27:39.625Z,88.08
2018-12-07T19:28:39.845Z,87.36
2018-12-07T19:29:39.607Z,87.67
2018-12-07T19:30:39.762Z,87.77
2018-12-07T19:31:39.656Z,87.98
2018-12-07T19:32:39.542Z,87.26
2018-12-07T19:33:39.529Z,87.57
2018-12-07T19:35:00.593Z,87.57
2018-12-07T19:35:39.546Z,87.87
2018-12-07T19:36:39.807Z,87.46
2018-12-07T19:37:39.557Z,87.57
2018-12-07T19:38:40.449Z,87.77
2018-12-07T19:39:39.491Z,87.15
2018-12-07T19:40:39.517Z,87.36
2018-12-07T19:41:39.513Z,87.32
2018-12-07T19:42:39.489Z,87.12
2018-12-07T19:43:39.424Z,87.73
2018-12-07T19:44:39.405Z,87.32
2018-12-07T19:45:39.491Z,87.63
2018-12-07T19:46:39.442Z,88.14
2018-12-07T19:47:39.429Z,88.04
2018-12-07T19:48:39.447Z,88.49
2018-12-07T19:49:39.936Z,88.14
2018-12-07T19:50:39.524Z,87.94
2018-12-07T19:51:39.375Z,87.94